sensor_id;sensor_type;location;lat;lon;timestamp;P1;durP1;ratioP1;P2;durP2;ratioP2
15114;SDS011;7658;51.456;7.622;2023-07-29T00:02:08;8.70;;;5.70;;
15114;SDS011;7658;51.456;7.622;2023-07-29T00:04:35;11.85;;;7.80;;
15114;SDS011;7658;51.456;7.622;2023-07-29T00:07:00;8.00;;;6.70;;
15114;SDS011;7658;51.456;7.622;2023-07-29T00:09:26;10.10;;;6.97;;
15114;SDS011;7658;51.456;7.622;2023-07-29T00:11:52;11.63;;;7.28;;
15114;SDS011;7658;51.456;7.622;2023-07-29T00:14:18;10.18;;;7.70;;
15114;SDS011;7658;51.456;7.622;2023-07-29T00:16:43;11.93;;;8.13;;
15114;SDS011;7658;51.456;7.622;2023-07-29T00:19:09;11.13;;;7.55;;
15114;SDS011;7658;51.456;7.622;2023-07-29T00:21:35;10.63;;;7.82;;
15114;SDS011;7658;51.456;7.622;2023-07-29T00:24:00;10.98;;;7.47;;
15114;SDS011;7658;51.456;7.622;2023-07-29T00:26:26;7.20;;;6.32;;
15114;SDS011;7658;51.456;7.622;2023-07-29T00:28:54;7.95;;;6.90;;
15114;SDS011;7658;51.456;7.622;2023-07-29T00:31:21;7.43;;;6.03;;
15114;SDS011;7658;51.456;7.622;2023-07-29T00:33:47;6.90;;;5.75;;
15114;SDS011;7658;51.456;7.622;2023-07-29T00:36:12;9.02;;;6.88;;
15114;SDS011;7658;51.456;7.622;2023-07-29T00:38:38;6.97;;;5.60;;
15114;SDS011;7658;51.456;7.622;2023-07-29T00:41:04;10.65;;;6.78;;
15114;SDS011;7658;51.456;7.622;2023-07-29T00:43:30;6.82;;;6.03;;
15114;SDS011;7658;51.456;7.622;2023-07-29T00:45:56;7.38;;;5.72;;
15114;SDS011;7658;51.456;7.622;2023-07-29T00:48:22;7.38;;;5.80;;
15114;SDS011;7658;51.456;7.622;2023-07-29T00:50:49;8.52;;;6.18;;
15114;SDS011;7658;51.456;7.622;2023-07-29T00:53:15;16.80;;;7.13;;
15114;SDS011;7658;51.456;7.622;2023-07-29T00:55:41;8.73;;;6.30;;
15114;SDS011;7658;51.456;7.622;2023-07-29T00:58:08;6.72;;;5.90;;
15114;SDS011;7658;51.456;7.622;2023-07-29T01:00:33;8.18;;;6.05;;
15114;SDS011;7658;51.456;7.622;2023-07-29T01:02:59;8.30;;;6.55;;
15114;SDS011;7658;51.456;7.622;2023-07-29T01:05:27;8.73;;;6.68;;
15114;SDS011;7658;51.456;7.622;2023-07-29T01:08:18;7.80;;;5.95;;
15114;SDS011;7658;51.456;7.622;2023-07-29T01:11:03;6.95;;;5.30;;
15114;SDS011;7658;51.456;7.622;2023-07-29T01:13:41;6.65;;;5.90;;
15114;SDS011;7658;51.456;7.622;2023-07-29T01:16:17;6.50;;;5.90;;
15114;SDS011;7658;51.456;7.622;2023-07-29T01:18:47;7.43;;;5.75;;
15114;SDS011;7658;51.456;7.622;2023-07-29T01:21:14;9.63;;;6.32;;
15114;SDS011;7658;51.456;7.622;2023-07-29T01:23:42;8.77;;;5.18;;
15114;SDS011;7658;51.456;7.622;2023-07-29T01:26:08;5.88;;;5.15;;
15114;SDS011;7658;51.456;7.622;2023-07-29T01:28:34;8.68;;;5.43;;
15114;SDS011;7658;51.456;7.622;2023-07-29T01:33:48;6.45;;;5.38;;
15114;SDS011;7658;51.456;7.622;2023-07-29T01:36:23;6.68;;;5.68;;
15114;SDS011;7658;51.456;7.622;2023-07-29T01:38:53;8.10;;;5.82;;
15114;SDS011;7658;51.456;7.622;2023-07-29T01:41:20;6.88;;;6.05;;
15114;SDS011;7658;51.456;7.622;2023-07-29T01:43:46;6.15;;;5.38;;
15114;SDS011;7658;51.456;7.622;2023-07-29T01:46:12;6.32;;;5.40;;
15114;SDS011;7658;51.456;7.622;2023-07-29T01:48:39;6.50;;;5.50;;
15114;SDS011;7658;51.456;7.622;2023-07-29T01:51:06;6.53;;;5.20;;
15114;SDS011;7658;51.456;7.622;2023-07-29T01:53:32;7.07;;;5.18;;
15114;SDS011;7658;51.456;7.622;2023-07-29T01:55:58;5.80;;;4.78;;
15114;SDS011;7658;51.456;7.622;2023-07-29T01:58:24;6.82;;;5.85;;
15114;SDS011;7658;51.456;7.622;2023-07-29T02:00:50;5.90;;;5.25;;
15114;SDS011;7658;51.456;7.622;2023-07-29T02:03:16;6.18;;;5.20;;
15114;SDS011;7658;51.456;7.622;2023-07-29T02:05:42;6.20;;;5.20;;
15114;SDS011;7658;51.456;7.622;2023-07-29T02:08:09;7.57;;;5.63;;
15114;SDS011;7658;51.456;7.622;2023-07-29T02:10:35;6.60;;;5.43;;
15114;SDS011;7658;51.456;7.622;2023-07-29T02:13:01;8.38;;;5.30;;
15114;SDS011;7658;51.456;7.622;2023-07-29T02:15:27;7.25;;;5.53;;
15114;SDS011;7658;51.456;7.622;2023-07-29T02:17:53;5.63;;;4.97;;
15114;SDS011;7658;51.456;7.622;2023-07-29T02:20:19;7.28;;;5.43;;
15114;SDS011;7658;51.456;7.622;2023-07-29T02:22:45;6.07;;;5.47;;
15114;SDS011;7658;51.456;7.622;2023-07-29T02:25:12;6.05;;;5.30;;
15114;SDS011;7658;51.456;7.622;2023-07-29T02:27:38;5.72;;;4.80;;
15114;SDS011;7658;51.456;7.622;2023-07-29T02:30:04;6.88;;;5.30;;
15114;SDS011;7658;51.456;7.622;2023-07-29T02:32:30;6.13;;;5.30;;
15114;SDS011;7658;51.456;7.622;2023-07-29T02:34:55;7.72;;;4.45;;
15114;SDS011;7658;51.456;7.622;2023-07-29T02:37:21;6.28;;;5.32;;
15114;SDS011;7658;51.456;7.622;2023-07-29T02:39:47;5.82;;;5.22;;
15114;SDS011;7658;51.456;7.622;2023-07-29T02:42:13;10.13;;;5.78;;
15114;SDS011;7658;51.456;7.622;2023-07-29T02:44:39;6.25;;;5.30;;
15114;SDS011;7658;51.456;7.622;2023-07-29T02:47:05;8.02;;;5.07;;
15114;SDS011;7658;51.456;7.622;2023-07-29T02:49:31;6.38;;;5.32;;
15114;SDS011;7658;51.456;7.622;2023-07-29T02:51:56;7.20;;;5.93;;
15114;SDS011;7658;51.456;7.622;2023-07-29T02:54:22;7.88;;;5.65;;
15114;SDS011;7658;51.456;7.622;2023-07-29T02:56:49;6.15;;;5.53;;
15114;SDS011;7658;51.456;7.622;2023-07-29T02:59:15;7.78;;;5.80;;
15114;SDS011;7658;51.456;7.622;2023-07-29T03:01:41;4.53;;;4.13;;
15114;SDS011;7658;51.456;7.622;2023-07-29T03:04:07;5.80;;;5.20;;
15114;SDS011;7658;51.456;7.622;2023-07-29T03:06:33;6.03;;;5.43;;
15114;SDS011;7658;51.456;7.622;2023-07-29T03:08:59;7.53;;;5.05;;
15114;SDS011;7658;51.456;7.622;2023-07-29T03:11:25;4.30;;;3.90;;
15114;SDS011;7658;51.456;7.622;2023-07-29T03:13:50;5.07;;;4.20;;
15114;SDS011;7658;51.456;7.622;2023-07-29T03:16:16;8.18;;;5.60;;
15114;SDS011;7658;51.456;7.622;2023-07-29T03:18:43;5.72;;;4.82;;
15114;SDS011;7658;51.456;7.622;2023-07-29T03:21:09;6.40;;;5.32;;
15114;SDS011;7658;51.456;7.622;2023-07-29T03:23:36;5.90;;;5.15;;
15114;SDS011;7658;51.456;7.622;2023-07-29T03:26:03;9.23;;;5.28;;
15114;SDS011;7658;51.456;7.622;2023-07-29T03:28:35;5.28;;;4.78;;
15114;SDS011;7658;51.456;7.622;2023-07-29T03:31:06;5.10;;;4.40;;
15114;SDS011;7658;51.456;7.622;2023-07-29T03:33:32;8.50;;;5.28;;
15114;SDS011;7658;51.456;7.622;2023-07-29T03:35:58;7.90;;;5.35;;
15114;SDS011;7658;51.456;7.622;2023-07-29T03:38:24;9.35;;;6.45;;
15114;SDS011;7658;51.456;7.622;2023-07-29T03:40:50;8.00;;;5.70;;
15114;SDS011;7658;51.456;7.622;2023-07-29T03:43:16;11.82;;;6.65;;
15114;SDS011;7658;51.456;7.622;2023-07-29T03:45:42;8.85;;;7.03;;
15114;SDS011;7658;51.456;7.622;2023-07-29T03:48:08;10.02;;;6.70;;
15114;SDS011;7658;51.456;7.622;2023-07-29T03:50:34;8.07;;;6.93;;
15114;SDS011;7658;51.456;7.622;2023-07-29T03:53:01;9.65;;;6.88;;
15114;SDS011;7658;51.456;7.622;2023-07-29T03:55:27;12.73;;;7.70;;
15114;SDS011;7658;51.456;7.622;2023-07-29T03:57:55;9.55;;;6.95;;
15114;SDS011;7658;51.456;7.622;2023-07-29T04:00:24;8.32;;;6.20;;
15114;SDS011;7658;51.456;7.622;2023-07-29T04:02:50;7.55;;;6.03;;
15114;SDS011;7658;51.456;7.622;2023-07-29T04:05:16;7.50;;;5.70;;
15114;SDS011;7658;51.456;7.622;2023-07-29T04:07:43;9.80;;;6.53;;
15114;SDS011;7658;51.456;7.622;2023-07-29T04:10:09;7.93;;;6.45;;
15114;SDS011;7658;51.456;7.622;2023-07-29T04:12:35;7.22;;;5.90;;
15114;SDS011;7658;51.456;7.622;2023-07-29T04:15:01;8.02;;;6.38;;
15114;SDS011;7658;51.456;7.622;2023-07-29T04:17:27;8.45;;;6.78;;
15114;SDS011;7658;51.456;7.622;2023-07-29T04:19:54;10.38;;;7.47;;
15114;SDS011;7658;51.456;7.622;2023-07-29T04:22:20;10.52;;;7.18;;
15114;SDS011;7658;51.456;7.622;2023-07-29T04:24:46;11.85;;;8.02;;
15114;SDS011;7658;51.456;7.622;2023-07-29T04:27:12;12.43;;;8.77;;
15114;SDS011;7658;51.456;7.622;2023-07-29T04:29:37;13.55;;;9.48;;
15114;SDS011;7658;51.456;7.622;2023-07-29T04:32:03;14.63;;;9.57;;
15114;SDS011;7658;51.456;7.622;2023-07-29T04:34:30;14.95;;;10.25;;
15114;SDS011;7658;51.456;7.622;2023-07-29T04:36:56;13.65;;;8.75;;
15114;SDS011;7658;51.456;7.622;2023-07-29T04:39:22;17.85;;;10.23;;
15114;SDS011;7658;51.456;7.622;2023-07-29T04:41:48;13.75;;;9.07;;
15114;SDS011;7658;51.456;7.622;2023-07-29T04:44:14;10.75;;;8.63;;
15114;SDS011;7658;51.456;7.622;2023-07-29T04:46:40;12.20;;;10.05;;
15114;SDS011;7658;51.456;7.622;2023-07-29T04:49:05;13.70;;;10.55;;
15114;SDS011;7658;51.456;7.622;2023-07-29T04:51:31;20.27;;;11.50;;
15114;SDS011;7658;51.456;7.622;2023-07-29T04:53:57;19.17;;;13.13;;
15114;SDS011;7658;51.456;7.622;2023-07-29T04:56:23;15.35;;;10.85;;
15114;SDS011;7658;51.456;7.622;2023-07-29T04:58:49;16.83;;;12.07;;
15114;SDS011;7658;51.456;7.622;2023-07-29T05:01:15;14.55;;;11.70;;
15114;SDS011;7658;51.456;7.622;2023-07-29T05:03:41;13.88;;;11.82;;
15114;SDS011;7658;51.456;7.622;2023-07-29T05:06:07;13.68;;;10.85;;
15114;SDS011;7658;51.456;7.622;2023-07-29T05:08:32;15.98;;;10.38;;
15114;SDS011;7658;51.456;7.622;2023-07-29T05:10:58;14.60;;;12.23;;
15114;SDS011;7658;51.456;7.622;2023-07-29T05:13:24;14.80;;;12.35;;
15114;SDS011;7658;51.456;7.622;2023-07-29T05:15:50;16.23;;;12.10;;
15114;SDS011;7658;51.456;7.622;2023-07-29T05:18:16;16.05;;;12.10;;
15114;SDS011;7658;51.456;7.622;2023-07-29T05:20:42;15.07;;;12.65;;
15114;SDS011;7658;51.456;7.622;2023-07-29T05:23:08;19.63;;;15.30;;
15114;SDS011;7658;51.456;7.622;2023-07-29T05:25:34;22.38;;;13.82;;
15114;SDS011;7658;51.456;7.622;2023-07-29T05:28:00;17.80;;;14.70;;
15114;SDS011;7658;51.456;7.622;2023-07-29T05:30:27;20.30;;;15.57;;
15114;SDS011;7658;51.456;7.622;2023-07-29T05:32:56;23.63;;;17.13;;
15114;SDS011;7658;51.456;7.622;2023-07-29T05:35:23;19.70;;;16.85;;
15114;SDS011;7658;51.456;7.622;2023-07-29T05:37:49;22.00;;;17.02;;
15114;SDS011;7658;51.456;7.622;2023-07-29T05:40:15;26.15;;;19.33;;
15114;SDS011;7658;51.456;7.622;2023-07-29T05:42:40;30.38;;;20.27;;
15114;SDS011;7658;51.456;7.622;2023-07-29T05:45:06;26.25;;;19.90;;
15114;SDS011;7658;51.456;7.622;2023-07-29T05:47:33;27.10;;;21.10;;
15114;SDS011;7658;51.456;7.622;2023-07-29T05:49:58;27.88;;;20.25;;
15114;SDS011;7658;51.456;7.622;2023-07-29T05:52:27;36.83;;;22.13;;
15114;SDS011;7658;51.456;7.622;2023-07-29T05:54:53;27.48;;;20.48;;
15114;SDS011;7658;51.456;7.622;2023-07-29T05:57:18;32.15;;;21.02;;
15114;SDS011;7658;51.456;7.622;2023-07-29T05:59:44;24.33;;;19.08;;
15114;SDS011;7658;51.456;7.622;2023-07-29T06:02:10;23.58;;;17.95;;
15114;SDS011;7658;51.456;7.622;2023-07-29T06:04:36;24.85;;;17.30;;
15114;SDS011;7658;51.456;7.622;2023-07-29T06:07:02;20.48;;;15.35;;
15114;SDS011;7658;51.456;7.622;2023-07-29T06:09:28;18.15;;;13.35;;
15114;SDS011;7658;51.456;7.622;2023-07-29T06:11:53;22.65;;;15.82;;
15114;SDS011;7658;51.456;7.622;2023-07-29T06:14:19;18.42;;;15.73;;
15114;SDS011;7658;51.456;7.622;2023-07-29T06:16:45;21.95;;;14.60;;
15114;SDS011;7658;51.456;7.622;2023-07-29T06:19:11;19.42;;;14.65;;
15114;SDS011;7658;51.456;7.622;2023-07-29T06:21:38;21.77;;;14.68;;
15114;SDS011;7658;51.456;7.622;2023-07-29T06:24:04;21.45;;;14.98;;
15114;SDS011;7658;51.456;7.622;2023-07-29T06:26:29;20.00;;;15.63;;
15114;SDS011;7658;51.456;7.622;2023-07-29T06:28:55;20.88;;;13.63;;
15114;SDS011;7658;51.456;7.622;2023-07-29T06:31:21;20.30;;;14.50;;
15114;SDS011;7658;51.456;7.622;2023-07-29T06:33:47;21.50;;;14.10;;
15114;SDS011;7658;51.456;7.622;2023-07-29T06:36:13;17.95;;;13.40;;
15114;SDS011;7658;51.456;7.622;2023-07-29T06:38:39;18.02;;;14.20;;
15114;SDS011;7658;51.456;7.622;2023-07-29T06:41:06;20.13;;;13.27;;
15114;SDS011;7658;51.456;7.622;2023-07-29T06:43:31;18.13;;;12.85;;
15114;SDS011;7658;51.456;7.622;2023-07-29T06:45:57;21.90;;;12.88;;
15114;SDS011;7658;51.456;7.622;2023-07-29T06:48:23;15.75;;;12.18;;
15114;SDS011;7658;51.456;7.622;2023-07-29T06:50:49;17.17;;;13.40;;
15114;SDS011;7658;51.456;7.622;2023-07-29T06:53:15;14.40;;;11.02;;
15114;SDS011;7658;51.456;7.622;2023-07-29T06:55:42;17.30;;;10.35;;
15114;SDS011;7658;51.456;7.622;2023-07-29T06:58:08;18.17;;;10.30;;
15114;SDS011;7658;51.456;7.622;2023-07-29T07:00:34;12.27;;;9.02;;
15114;SDS011;7658;51.456;7.622;2023-07-29T07:03:00;14.48;;;10.82;;
15114;SDS011;7658;51.456;7.622;2023-07-29T07:05:26;14.82;;;9.93;;
15114;SDS011;7658;51.456;7.622;2023-07-29T07:07:52;15.05;;;11.65;;
15114;SDS011;7658;51.456;7.622;2023-07-29T07:10:18;13.27;;;11.35;;
15114;SDS011;7658;51.456;7.622;2023-07-29T07:12:44;14.35;;;11.45;;
15114;SDS011;7658;51.456;7.622;2023-07-29T07:15:10;14.60;;;11.63;;
15114;SDS011;7658;51.456;7.622;2023-07-29T07:17:35;13.48;;;11.32;;
15114;SDS011;7658;51.456;7.622;2023-07-29T07:20:02;15.50;;;11.18;;
15114;SDS011;7658;51.456;7.622;2023-07-29T07:22:28;13.98;;;10.90;;
15114;SDS011;7658;51.456;7.622;2023-07-29T07:24:54;12.88;;;10.00;;
15114;SDS011;7658;51.456;7.622;2023-07-29T07:27:20;11.93;;;8.70;;
15114;SDS011;7658;51.456;7.622;2023-07-29T07:29:45;9.48;;;7.13;;
15114;SDS011;7658;51.456;7.622;2023-07-29T07:32:11;10.93;;;7.22;;
15114;SDS011;7658;51.456;7.622;2023-07-29T07:34:37;9.65;;;6.38;;
15114;SDS011;7658;51.456;7.622;2023-07-29T07:37:02;14.75;;;7.03;;
15114;SDS011;7658;51.456;7.622;2023-07-29T07:39:29;13.63;;;6.45;;
15114;SDS011;7658;51.456;7.622;2023-07-29T07:41:56;11.75;;;6.90;;
15114;SDS011;7658;51.456;7.622;2023-07-29T07:44:21;8.32;;;6.28;;
15114;SDS011;7658;51.456;7.622;2023-07-29T07:46:47;11.55;;;6.10;;
15114;SDS011;7658;51.456;7.622;2023-07-29T07:49:13;10.05;;;5.38;;
15114;SDS011;7658;51.456;7.622;2023-07-29T07:51:39;7.38;;;5.30;;
15114;SDS011;7658;51.456;7.622;2023-07-29T07:54:05;6.57;;;4.75;;
15114;SDS011;7658;51.456;7.622;2023-07-29T07:56:30;9.98;;;4.65;;
15114;SDS011;7658;51.456;7.622;2023-07-29T07:58:56;7.10;;;3.88;;
15114;SDS011;7658;51.456;7.622;2023-07-29T08:01:22;5.70;;;3.85;;
15114;SDS011;7658;51.456;7.622;2023-07-29T08:03:47;3.60;;;3.30;;
15114;SDS011;7658;51.456;7.622;2023-07-29T08:06:13;9.30;;;3.58;;
15114;SDS011;7658;51.456;7.622;2023-07-29T08:08:39;3.88;;;2.85;;
15114;SDS011;7658;51.456;7.622;2023-07-29T08:11:05;3.75;;;2.90;;
15114;SDS011;7658;51.456;7.622;2023-07-29T08:13:31;4.65;;;3.30;;
15114;SDS011;7658;51.456;7.622;2023-07-29T08:15:56;8.35;;;3.35;;
15114;SDS011;7658;51.456;7.622;2023-07-29T08:18:23;6.38;;;3.00;;
15114;SDS011;7658;51.456;7.622;2023-07-29T08:20:55;3.50;;;2.75;;
15114;SDS011;7658;51.456;7.622;2023-07-29T08:23:23;3.25;;;2.50;;
15114;SDS011;7658;51.456;7.622;2023-07-29T08:25:53;3.10;;;2.17;;
15114;SDS011;7658;51.456;7.622;2023-07-29T08:28:21;4.95;;;2.25;;
15114;SDS011;7658;51.456;7.622;2023-07-29T08:30:47;2.40;;;2.20;;
15114;SDS011;7658;51.456;7.622;2023-07-29T08:33:13;4.30;;;2.40;;
15114;SDS011;7658;51.456;7.622;2023-07-29T08:35:39;2.47;;;2.00;;
15114;SDS011;7658;51.456;7.622;2023-07-29T08:38:04;2.67;;;2.00;;
15114;SDS011;7658;51.456;7.622;2023-07-29T08:40:30;2.10;;;1.90;;
15114;SDS011;7658;51.456;7.622;2023-07-29T08:42:59;3.25;;;2.40;;
15114;SDS011;7658;51.456;7.622;2023-07-29T08:45:32;2.35;;;2.15;;
15114;SDS011;7658;51.456;7.622;2023-07-29T08:48:02;2.28;;;1.88;;
15114;SDS011;7658;51.456;7.622;2023-07-29T08:50:30;2.00;;;1.80;;
15114;SDS011;7658;51.456;7.622;2023-07-29T08:52:58;2.05;;;1.80;;
15114;SDS011;7658;51.456;7.622;2023-07-29T08:55:25;5.28;;;2.17;;
15114;SDS011;7658;51.456;7.622;2023-07-29T08:57:51;2.47;;;1.90;;
15114;SDS011;7658;51.456;7.622;2023-07-29T09:00:18;2.15;;;1.88;;
15114;SDS011;7658;51.456;7.622;2023-07-29T09:02:45;2.10;;;1.80;;
15114;SDS011;7658;51.456;7.622;2023-07-29T09:05:11;2.03;;;1.88;;
15114;SDS011;7658;51.456;7.622;2023-07-29T09:07:36;3.13;;;1.85;;
15114;SDS011;7658;51.456;7.622;2023-07-29T09:10:03;2.50;;;1.70;;
15114;SDS011;7658;51.456;7.622;2023-07-29T09:12:29;3.75;;;1.92;;
15114;SDS011;7658;51.456;7.622;2023-07-29T09:14:55;4.50;;;1.92;;
15114;SDS011;7658;51.456;7.622;2023-07-29T09:17:21;1.70;;;1.58;;
15114;SDS011;7658;51.456;7.622;2023-07-29T09:19:48;2.10;;;1.88;;
15114;SDS011;7658;51.456;7.622;2023-07-29T09:22:18;1.80;;;1.70;;
15114;SDS011;7658;51.456;7.622;2023-07-29T09:24:45;1.88;;;1.77;;
15114;SDS011;7658;51.456;7.622;2023-07-29T09:27:25;1.95;;;1.75;;
15114;SDS011;7658;51.456;7.622;2023-07-29T09:29:52;3.00;;;2.00;;
15114;SDS011;7658;51.456;7.622;2023-07-29T09:32:22;3.22;;;1.67;;
15114;SDS011;7658;51.456;7.622;2023-07-29T09:34:49;2.45;;;1.60;;
15114;SDS011;7658;51.456;7.622;2023-07-29T09:37:16;2.78;;;2.08;;
15114;SDS011;7658;51.456;7.622;2023-07-29T09:39:48;4.10;;;2.45;;
15114;SDS011;7658;51.456;7.622;2023-07-29T09:42:18;1.92;;;1.83;;
15114;SDS011;7658;51.456;7.622;2023-07-29T09:44:45;3.33;;;2.00;;
15114;SDS011;7658;51.456;7.622;2023-07-29T09:47:29;1.90;;;1.80;;
15114;SDS011;7658;51.456;7.622;2023-07-29T09:49:55;1.85;;;1.73;;
15114;SDS011;7658;51.456;7.622;2023-07-29T09:52:21;2.58;;;1.67;;
15114;SDS011;7658;51.456;7.622;2023-07-29T09:54:48;1.90;;;1.70;;
15114;SDS011;7658;51.456;7.622;2023-07-29T09:57:14;2.20;;;2.00;;
15114;SDS011;7658;51.456;7.622;2023-07-29T09:59:41;1.85;;;1.73;;
15114;SDS011;7658;51.456;7.622;2023-07-29T10:02:09;2.72;;;1.75;;
15114;SDS011;7658;51.456;7.622;2023-07-29T10:04:43;1.75;;;1.65;;
15114;SDS011;7658;51.456;7.622;2023-07-29T10:07:11;2.45;;;1.88;;
15114;SDS011;7658;51.456;7.622;2023-07-29T10:09:40;3.45;;;2.00;;
15114;SDS011;7658;51.456;7.622;2023-07-29T10:12:07;3.58;;;1.88;;
15114;SDS011;7658;51.456;7.622;2023-07-29T10:14:33;4.78;;;2.00;;
15114;SDS011;7658;51.456;7.622;2023-07-29T10:16:59;3.53;;;2.28;;
15114;SDS011;7658;51.456;7.622;2023-07-29T10:19:25;1.80;;;1.70;;
15114;SDS011;7658;51.456;7.622;2023-07-29T10:21:52;1.80;;;1.55;;
15114;SDS011;7658;51.456;7.622;2023-07-29T10:24:22;2.60;;;1.85;;
15114;SDS011;7658;51.456;7.622;2023-07-29T10:26:54;2.03;;;1.90;;
15114;SDS011;7658;51.456;7.622;2023-07-29T10:29:24;1.95;;;1.83;;
15114;SDS011;7658;51.456;7.622;2023-07-29T10:31:52;2.00;;;1.67;;
15114;SDS011;7658;51.456;7.622;2023-07-29T10:34:21;1.75;;;1.65;;
15114;SDS011;7658;51.456;7.622;2023-07-29T10:36:48;3.50;;;2.15;;
15114;SDS011;7658;51.456;7.622;2023-07-29T10:39:14;2.13;;;1.98;;
15114;SDS011;7658;51.456;7.622;2023-07-29T10:47:14;2.08;;;1.88;;
15114;SDS011;7658;51.456;7.622;2023-07-29T10:49:54;2.25;;;1.83;;
15114;SDS011;7658;51.456;7.622;2023-07-29T10:52:37;2.22;;;2.00;;
15114;SDS011;7658;51.456;7.622;2023-07-29T10:55:22;2.15;;;1.95;;
15114;SDS011;7658;51.456;7.622;2023-07-29T10:58:13;4.63;;;1.90;;
15114;SDS011;7658;51.456;7.622;2023-07-29T11:00:42;2.50;;;2.10;;
15114;SDS011;7658;51.456;7.622;2023-07-29T11:03:09;4.38;;;1.98;;
15114;SDS011;7658;51.456;7.622;2023-07-29T11:05:56;5.25;;;1.98;;
15114;SDS011;7658;51.456;7.622;2023-07-29T11:08:29;4.50;;;2.03;;
15114;SDS011;7658;51.456;7.622;2023-07-29T11:11:01;2.83;;;2.03;;
15114;SDS011;7658;51.456;7.622;2023-07-29T11:13:36;2.97;;;2.00;;
15114;SDS011;7658;51.456;7.622;2023-07-29T11:16:03;2.15;;;2.00;;
15114;SDS011;7658;51.456;7.622;2023-07-29T11:18:34;2.13;;;1.85;;
15114;SDS011;7658;51.456;7.622;2023-07-29T11:21:01;2.40;;;2.10;;
15114;SDS011;7658;51.456;7.622;2023-07-29T11:23:32;4.03;;;2.00;;
15114;SDS011;7658;51.456;7.622;2023-07-29T11:25:59;3.03;;;2.10;;
15114;SDS011;7658;51.456;7.622;2023-07-29T11:28:25;2.55;;;1.95;;
15114;SDS011;7658;51.456;7.622;2023-07-29T11:30:51;2.60;;;2.40;;
15114;SDS011;7658;51.456;7.622;2023-07-29T11:33:22;2.17;;;1.77;;
15114;SDS011;7658;51.456;7.622;2023-07-29T11:35:53;5.15;;;1.98;;
15114;SDS011;7658;51.456;7.622;2023-07-29T11:38:19;1.98;;;1.77;;
15114;SDS011;7658;51.456;7.622;2023-07-29T11:40:56;2.08;;;1.92;;
15114;SDS011;7658;51.456;7.622;2023-07-29T11:43:24;2.10;;;1.90;;
15114;SDS011;7658;51.456;7.622;2023-07-29T11:45:51;5.82;;;2.00;;
15114;SDS011;7658;51.456;7.622;2023-07-29T11:48:17;2.25;;;1.75;;
15114;SDS011;7658;51.456;7.622;2023-07-29T11:50:43;1.85;;;1.60;;
15114;SDS011;7658;51.456;7.622;2023-07-29T11:53:11;4.65;;;2.17;;
15114;SDS011;7658;51.456;7.622;2023-07-29T11:55:37;4.03;;;1.83;;
15114;SDS011;7658;51.456;7.622;2023-07-29T11:58:03;2.47;;;1.80;;
15114;SDS011;7658;51.456;7.622;2023-07-29T12:00:29;1.95;;;1.80;;
15114;SDS011;7658;51.456;7.622;2023-07-29T12:02:56;2.63;;;1.92;;
15114;SDS011;7658;51.456;7.622;2023-07-29T12:05:22;3.60;;;2.10;;
15114;SDS011;7658;51.456;7.622;2023-07-29T12:07:49;4.10;;;1.92;;
15114;SDS011;7658;51.456;7.622;2023-07-29T12:10:15;2.75;;;1.88;;
15114;SDS011;7658;51.456;7.622;2023-07-29T12:12:47;4.50;;;2.17;;
15114;SDS011;7658;51.456;7.622;2023-07-29T12:15:22;2.00;;;1.80;;
15114;SDS011;7658;51.456;7.622;2023-07-29T12:17:52;2.20;;;2.00;;
15114;SDS011;7658;51.456;7.622;2023-07-29T12:20:20;3.78;;;2.03;;
15114;SDS011;7658;51.456;7.622;2023-07-29T12:22:50;3.25;;;1.85;;
15114;SDS011;7658;51.456;7.622;2023-07-29T12:25:17;2.30;;;2.05;;
15114;SDS011;7658;51.456;7.622;2023-07-29T12:27:44;2.75;;;2.00;;
15114;SDS011;7658;51.456;7.622;2023-07-29T12:30:10;3.10;;;1.92;;
15114;SDS011;7658;51.456;7.622;2023-07-29T12:32:45;2.78;;;1.65;;
15114;SDS011;7658;51.456;7.622;2023-07-29T12:35:11;2.28;;;1.70;;
15114;SDS011;7658;51.456;7.622;2023-07-29T12:37:38;2.70;;;2.10;;
15114;SDS011;7658;51.456;7.622;2023-07-29T12:40:07;4.43;;;1.88;;
15114;SDS011;7658;51.456;7.622;2023-07-29T12:42:34;3.92;;;1.80;;
15114;SDS011;7658;51.456;7.622;2023-07-29T12:45:00;2.05;;;1.80;;
15114;SDS011;7658;51.456;7.622;2023-07-29T12:47:26;2.78;;;1.80;;
15114;SDS011;7658;51.456;7.622;2023-07-29T12:49:51;3.95;;;2.45;;
15114;SDS011;7658;51.456;7.622;2023-07-29T12:52:17;2.90;;;1.98;;
15114;SDS011;7658;51.456;7.622;2023-07-29T12:54:43;2.38;;;1.90;;
15114;SDS011;7658;51.456;7.622;2023-07-29T12:57:09;6.63;;;2.28;;
15114;SDS011;7658;51.456;7.622;2023-07-29T12:59:35;2.60;;;2.22;;
15114;SDS011;7658;51.456;7.622;2023-07-29T13:02:00;2.10;;;1.90;;
15114;SDS011;7658;51.456;7.622;2023-07-29T13:04:26;4.35;;;2.15;;
15114;SDS011;7658;51.456;7.622;2023-07-29T13:06:52;4.78;;;2.10;;
15114;SDS011;7658;51.456;7.622;2023-07-29T13:09:18;8.93;;;2.50;;
15114;SDS011;7658;51.456;7.622;2023-07-29T13:11:43;3.67;;;2.10;;
15114;SDS011;7658;51.456;7.622;2023-07-29T13:14:09;2.08;;;1.83;;
15114;SDS011;7658;51.456;7.622;2023-07-29T13:16:35;2.40;;;1.83;;
15114;SDS011;7658;51.456;7.622;2023-07-29T13:19:00;3.60;;;2.42;;
15114;SDS011;7658;51.456;7.622;2023-07-29T13:21:26;3.60;;;2.33;;
15114;SDS011;7658;51.456;7.622;2023-07-29T13:23:52;2.60;;;2.00;;
15114;SDS011;7658;51.456;7.622;2023-07-29T13:26:18;2.90;;;2.05;;
15114;SDS011;7658;51.456;7.622;2023-07-29T13:28:43;2.55;;;1.85;;
15114;SDS011;7658;51.456;7.622;2023-07-29T13:31:09;3.28;;;2.03;;
15114;SDS011;7658;51.456;7.622;2023-07-29T13:33:35;2.67;;;2.13;;
15114;SDS011;7658;51.456;7.622;2023-07-29T13:36:01;3.55;;;2.58;;
15114;SDS011;7658;51.456;7.622;2023-07-29T13:38:28;3.10;;;2.30;;
15114;SDS011;7658;51.456;7.622;2023-07-29T13:40:54;2.67;;;2.17;;
15114;SDS011;7658;51.456;7.622;2023-07-29T13:43:21;2.95;;;2.63;;
15114;SDS011;7658;51.456;7.622;2023-07-29T13:45:46;3.25;;;2.25;;
15114;SDS011;7658;51.456;7.622;2023-07-29T13:48:14;2.33;;;2.10;;
15114;SDS011;7658;51.456;7.622;2023-07-29T13:50:40;2.88;;;2.30;;
15114;SDS011;7658;51.456;7.622;2023-07-29T13:53:06;4.15;;;2.67;;
15114;SDS011;7658;51.456;7.622;2023-07-29T13:55:32;4.32;;;2.30;;
15114;SDS011;7658;51.456;7.622;2023-07-29T13:57:57;4.70;;;2.40;;
15114;SDS011;7658;51.456;7.622;2023-07-29T14:00:23;4.25;;;2.67;;
15114;SDS011;7658;51.456;7.622;2023-07-29T14:02:49;3.55;;;2.60;;
15114;SDS011;7658;51.456;7.622;2023-07-29T14:05:15;5.15;;;2.97;;
15114;SDS011;7658;51.456;7.622;2023-07-29T14:07:40;5.32;;;2.25;;
15114;SDS011;7658;51.456;7.622;2023-07-29T14:10:06;5.18;;;2.67;;
15114;SDS011;7658;51.456;7.622;2023-07-29T14:12:32;4.82;;;2.50;;
15114;SDS011;7658;51.456;7.622;2023-07-29T14:14:58;5.50;;;2.80;;
15114;SDS011;7658;51.456;7.622;2023-07-29T14:17:24;4.47;;;2.83;;
15114;SDS011;7658;51.456;7.622;2023-07-29T14:19:50;3.10;;;2.20;;
15114;SDS011;7658;51.456;7.622;2023-07-29T14:22:15;2.97;;;2.22;;
15114;SDS011;7658;51.456;7.622;2023-07-29T14:24:41;3.05;;;2.40;;
15114;SDS011;7658;51.456;7.622;2023-07-29T14:27:07;5.15;;;2.30;;
15114;SDS011;7658;51.456;7.622;2023-07-29T14:29:33;2.85;;;2.40;;
15114;SDS011;7658;51.456;7.622;2023-07-29T14:31:58;3.97;;;2.45;;
15114;SDS011;7658;51.456;7.622;2023-07-29T14:34:24;4.53;;;2.47;;
15114;SDS011;7658;51.456;7.622;2023-07-29T14:36:50;5.10;;;2.47;;
15114;SDS011;7658;51.456;7.622;2023-07-29T14:39:15;3.08;;;2.67;;
15114;SDS011;7658;51.456;7.622;2023-07-29T14:41:41;2.65;;;2.45;;
15114;SDS011;7658;51.456;7.622;2023-07-29T14:44:07;4.22;;;3.00;;
15114;SDS011;7658;51.456;7.622;2023-07-29T14:46:32;9.25;;;3.65;;
15114;SDS011;7658;51.456;7.622;2023-07-29T14:48:58;4.40;;;2.65;;
15114;SDS011;7658;51.456;7.622;2023-07-29T14:51:24;3.72;;;3.03;;
15114;SDS011;7658;51.456;7.622;2023-07-29T14:53:50;4.85;;;3.10;;
15114;SDS011;7658;51.456;7.622;2023-07-29T14:56:16;3.03;;;2.47;;
15114;SDS011;7658;51.456;7.622;2023-07-29T14:58:43;3.55;;;2.63;;
15114;SDS011;7658;51.456;7.622;2023-07-29T15:01:09;4.47;;;2.60;;
15114;SDS011;7658;51.456;7.622;2023-07-29T15:03:35;3.63;;;2.75;;